Klagenfurt Airport LOWK

Flugplatz Daten

Name: Klagenfurt Airport

Ident: LOWK

Lat: 46,64250183

Long: 14,33769989

Platzhöhe: 1470 ft

IataCode: KLU

City: Klagenfurt am Wörthersee

Homepage: http://www.klagenfurt-airport.com/

Metar

2022/08/10 19:20
LOWK 101920Z 09003KT 050V130 9999 FEW070 23/10 Q1022 NOSIG

Taf

2022/08/10 18:24
TAF LOWK 101715Z 1018/1118 VRB04KT 9999 FEW070 TX26/1114Z TN13/1104Z
TEMPO 1112/1117 09008KT

Webcams

Airport
Gewünschte Webcam nicht vorhanden? Dann fügen Sie eine hinzu. Sie wird dann so schnell wie möglich freigeschaltet
Url: Title: